sensor_id;sensor_type;location;lat;lon;timestamp;P1;durP1;ratioP1;P2;durP2;ratioP2
22468;SDS011;11401;50.792;4.352;2022-12-19T00:01:34;11.68;;;8.70;;
22468;SDS011;11401;50.792;4.352;2022-12-19T00:04:04;13.15;;;8.43;;
22468;SDS011;11401;50.792;4.352;2022-12-19T00:06:35;13.10;;;8.57;;
22468;SDS011;11401;50.792;4.352;2022-12-19T00:09:08;14.02;;;8.60;;
22468;SDS011;11401;50.792;4.352;2022-12-19T00:11:36;13.32;;;8.57;;
22468;SDS011;11401;50.792;4.352;2022-12-19T00:14:04;12.43;;;8.48;;
22468;SDS011;11401;50.792;4.352;2022-12-19T00:16:31;10.63;;;7.40;;
22468;SDS011;11401;50.792;4.352;2022-12-19T00:18:59;10.68;;;7.72;;
22468;SDS011;11401;50.792;4.352;2022-12-19T00:21:27;13.52;;;8.73;;
22468;SDS011;11401;50.792;4.352;2022-12-19T00:24:00;11.40;;;8.20;;
22468;SDS011;11401;50.792;4.352;2022-12-19T00:26:47;12.05;;;7.88;;
22468;SDS011;11401;50.792;4.352;2022-12-19T00:29:14;10.60;;;7.90;;
22468;SDS011;11401;50.792;4.352;2022-12-19T00:31:42;12.63;;;7.28;;
22468;SDS011;11401;50.792;4.352;2022-12-19T00:34:12;10.50;;;7.07;;
22468;SDS011;11401;50.792;4.352;2022-12-19T00:36:39;9.65;;;7.25;;
22468;SDS011;11401;50.792;4.352;2022-12-19T00:39:06;10.50;;;6.93;;
22468;SDS011;11401;50.792;4.352;2022-12-19T00:41:36;8.52;;;7.13;;
22468;SDS011;11401;50.792;4.352;2022-12-19T00:44:13;10.38;;;7.60;;
22468;SDS011;11401;50.792;4.352;2022-12-19T00:46:41;9.43;;;6.75;;
22468;SDS011;11401;50.792;4.352;2022-12-19T00:49:18;10.43;;;7.13;;
22468;SDS011;11401;50.792;4.352;2022-12-19T00:51:45;8.60;;;6.38;;
22468;SDS011;11401;50.792;4.352;2022-12-19T00:54:12;9.30;;;6.80;;
22468;SDS011;11401;50.792;4.352;2022-12-19T00:56:40;10.07;;;6.40;;
22468;SDS011;11401;50.792;4.352;2022-12-19T00:59:07;12.05;;;7.10;;
22468;SDS011;11401;50.792;4.352;2022-12-19T01:01:37;8.43;;;5.93;;
22468;SDS011;11401;50.792;4.352;2022-12-19T01:04:07;8.48;;;6.68;;
22468;SDS011;11401;50.792;4.352;2022-12-19T01:06:56;9.70;;;6.57;;
22468;SDS011;11401;50.792;4.352;2022-12-19T01:09:31;9.35;;;6.40;;
22468;SDS011;11401;50.792;4.352;2022-12-19T01:12:00;8.75;;;6.13;;
22468;SDS011;11401;50.792;4.352;2022-12-19T01:14:52;9.07;;;6.15;;
22468;SDS011;11401;50.792;4.352;2022-12-19T01:17:30;8.93;;;5.78;;
22468;SDS011;11401;50.792;4.352;2022-12-19T01:20:10;9.43;;;6.43;;
22468;SDS011;11401;50.792;4.352;2022-12-19T01:22:38;6.50;;;5.10;;
22468;SDS011;11401;50.792;4.352;2022-12-19T01:25:06;6.22;;;5.32;;
22468;SDS011;11401;50.792;4.352;2022-12-19T01:27:33;6.32;;;5.10;;
22468;SDS011;11401;50.792;4.352;2022-12-19T01:30:00;6.80;;;5.35;;
22468;SDS011;11401;50.792;4.352;2022-12-19T01:32:27;8.40;;;4.97;;
22468;SDS011;11401;50.792;4.352;2022-12-19T01:34:54;7.45;;;5.68;;
22468;SDS011;11401;50.792;4.352;2022-12-19T01:37:21;6.75;;;5.03;;
22468;SDS011;11401;50.792;4.352;2022-12-19T01:39:48;6.68;;;5.18;;
22468;SDS011;11401;50.792;4.352;2022-12-19T01:42:16;4.78;;;4.07;;
22468;SDS011;11401;50.792;4.352;2022-12-19T01:48:01;5.43;;;4.80;;
22468;SDS011;11401;50.792;4.352;2022-12-19T01:50:38;5.03;;;4.53;;
22468;SDS011;11401;50.792;4.352;2022-12-19T01:53:29;4.38;;;3.97;;
22468;SDS011;11401;50.792;4.352;2022-12-19T01:56:02;5.80;;;4.30;;
22468;SDS011;11401;50.792;4.352;2022-12-19T01:58:35;6.60;;;4.43;;
22468;SDS011;11401;50.792;4.352;2022-12-19T02:01:05;6.05;;;4.80;;
22468;SDS011;11401;50.792;4.352;2022-12-19T02:03:32;5.05;;;4.07;;
22468;SDS011;11401;50.792;4.352;2022-12-19T02:06:01;6.07;;;4.55;;
22468;SDS011;11401;50.792;4.352;2022-12-19T02:08:32;4.60;;;4.10;;
22468;SDS011;11401;50.792;4.352;2022-12-19T02:11:00;4.55;;;3.85;;
22468;SDS011;11401;50.792;4.352;2022-12-19T02:13:28;5.13;;;3.80;;
22468;SDS011;11401;50.792;4.352;2022-12-19T02:16:01;5.88;;;4.47;;
22468;SDS011;11401;50.792;4.352;2022-12-19T02:21:20;3.30;;;3.00;;
22468;SDS011;11401;50.792;4.352;2022-12-19T02:26:45;4.20;;;3.80;;
22468;SDS011;11401;50.792;4.352;2022-12-19T02:29:19;5.03;;;3.90;;
22468;SDS011;11401;50.792;4.352;2022-12-19T02:32:13;5.07;;;4.57;;
22468;SDS011;11401;50.792;4.352;2022-12-19T02:37:19;5.38;;;4.05;;
22468;SDS011;11401;50.792;4.352;2022-12-19T02:40:00;3.95;;;3.60;;
22468;SDS011;11401;50.792;4.352;2022-12-19T02:42:36;5.50;;;3.58;;
22468;SDS011;11401;50.792;4.352;2022-12-19T02:45:07;4.80;;;4.07;;
22468;SDS011;11401;50.792;4.352;2022-12-19T02:47:41;4.30;;;3.65;;
22468;SDS011;11401;50.792;4.352;2022-12-19T02:50:10;3.97;;;3.15;;
22468;SDS011;11401;50.792;4.352;2022-12-19T02:55:06;5.25;;;4.43;;
22468;SDS011;11401;50.792;4.352;2022-12-19T02:57:39;4.85;;;4.35;;
22468;SDS011;11401;50.792;4.352;2022-12-19T03:00:13;3.70;;;3.40;;
22468;SDS011;11401;50.792;4.352;2022-12-19T03:05:42;4.20;;;3.80;;
22468;SDS011;11401;50.792;4.352;2022-12-19T03:11:00;4.50;;;4.07;;
22468;SDS011;11401;50.792;4.352;2022-12-19T03:13:31;4.25;;;3.85;;
22468;SDS011;11401;50.792;4.352;2022-12-19T03:16:00;3.72;;;3.30;;
22468;SDS011;11401;50.792;4.352;2022-12-19T03:18:28;4.55;;;3.78;;
22468;SDS011;11401;50.792;4.352;2022-12-19T03:23:40;4.80;;;3.78;;
22468;SDS011;11401;50.792;4.352;2022-12-19T03:26:09;6.25;;;4.20;;
22468;SDS011;11401;50.792;4.352;2022-12-19T03:28:42;5.85;;;4.25;;
22468;SDS011;11401;50.792;4.352;2022-12-19T03:31:24;5.82;;;4.43;;
22468;SDS011;11401;50.792;4.352;2022-12-19T03:33:55;4.60;;;4.20;;
22468;SDS011;11401;50.792;4.352;2022-12-19T03:36:27;6.72;;;4.35;;
22468;SDS011;11401;50.792;4.352;2022-12-19T03:38:59;4.60;;;4.20;;
22468;SDS011;11401;50.792;4.352;2022-12-19T03:41:33;4.45;;;4.00;;
22468;SDS011;11401;50.792;4.352;2022-12-19T03:44:22;4.10;;;3.70;;
22468;SDS011;11401;50.792;4.352;2022-12-19T03:47:00;4.50;;;3.58;;
22468;SDS011;11401;50.792;4.352;2022-12-19T03:49:47;4.50;;;4.10;;
22468;SDS011;11401;50.792;4.352;2022-12-19T03:52:20;6.03;;;4.10;;
22468;SDS011;11401;50.792;4.352;2022-12-19T03:55:20;5.10;;;4.00;;
22468;SDS011;11401;50.792;4.352;2022-12-19T03:57:54;4.18;;;3.40;;
22468;SDS011;11401;50.792;4.352;2022-12-19T04:00:23;4.68;;;4.28;;
22468;SDS011;11401;50.792;4.352;2022-12-19T04:02:53;3.97;;;3.65;;
22468;SDS011;11401;50.792;4.352;2022-12-19T04:05:25;3.92;;;3.53;;
22468;SDS011;11401;50.792;4.352;2022-12-19T04:07:57;4.70;;;3.40;;
22468;SDS011;11401;50.792;4.352;2022-12-19T04:10:28;3.83;;;3.13;;
22468;SDS011;11401;50.792;4.352;2022-12-19T04:13:00;3.30;;;3.00;;
22468;SDS011;11401;50.792;4.352;2022-12-19T04:18:17;3.75;;;3.17;;
22468;SDS011;11401;50.792;4.352;2022-12-19T04:20:54;3.75;;;3.40;;
22468;SDS011;11401;50.792;4.352;2022-12-19T04:23:36;3.67;;;3.28;;
22468;SDS011;11401;50.792;4.352;2022-12-19T04:26:10;4.18;;;3.22;;
22468;SDS011;11401;50.792;4.352;2022-12-19T04:28:46;3.35;;;3.05;;
22468;SDS011;11401;50.792;4.352;2022-12-19T04:31:16;3.97;;;3.17;;
22468;SDS011;11401;50.792;4.352;2022-12-19T04:33:45;4.30;;;3.90;;
22468;SDS011;11401;50.792;4.352;2022-12-19T04:36:12;3.35;;;3.05;;
22468;SDS011;11401;50.792;4.352;2022-12-19T04:38:39;3.88;;;3.47;;
22468;SDS011;11401;50.792;4.352;2022-12-19T04:41:06;3.83;;;3.53;;
22468;SDS011;11401;50.792;4.352;2022-12-19T04:43:33;4.07;;;3.40;;
22468;SDS011;11401;50.792;4.352;2022-12-19T04:46:00;3.47;;;3.00;;
22468;SDS011;11401;50.792;4.352;2022-12-19T04:48:27;3.78;;;3.47;;
22468;SDS011;11401;50.792;4.352;2022-12-19T04:50:54;5.85;;;3.10;;
22468;SDS011;11401;50.792;4.352;2022-12-19T04:53:21;3.75;;;3.38;;
22468;SDS011;11401;50.792;4.352;2022-12-19T04:55:48;3.35;;;3.03;;
22468;SDS011;11401;50.792;4.352;2022-12-19T04:58:15;3.70;;;3.40;;
22468;SDS011;11401;50.792;4.352;2022-12-19T05:00:47;4.53;;;3.50;;
22468;SDS011;11401;50.792;4.352;2022-12-19T05:03:14;4.22;;;3.40;;
22468;SDS011;11401;50.792;4.352;2022-12-19T05:05:41;5.07;;;3.17;;
22468;SDS011;11401;50.792;4.352;2022-12-19T05:08:08;3.90;;;3.60;;
22468;SDS011;11401;50.792;4.352;2022-12-19T05:10:35;4.85;;;2.88;;
22468;SDS011;11401;50.792;4.352;2022-12-19T05:13:03;3.47;;;3.17;;
22468;SDS011;11401;50.792;4.352;2022-12-19T05:15:30;3.10;;;2.80;;
22468;SDS011;11401;50.792;4.352;2022-12-19T05:17:57;4.28;;;3.33;;
22468;SDS011;11401;50.792;4.352;2022-12-19T05:20:23;3.33;;;3.00;;
22468;SDS011;11401;50.792;4.352;2022-12-19T05:22:50;3.15;;;2.85;;
22468;SDS011;11401;50.792;4.352;2022-12-19T05:25:17;3.67;;;2.78;;
22468;SDS011;11401;50.792;4.352;2022-12-19T05:27:44;3.30;;;2.83;;
22468;SDS011;11401;50.792;4.352;2022-12-19T05:30:11;6.22;;;3.30;;
22468;SDS011;11401;50.792;4.352;2022-12-19T05:32:38;4.78;;;3.03;;
22468;SDS011;11401;50.792;4.352;2022-12-19T05:35:05;3.45;;;3.05;;
22468;SDS011;11401;50.792;4.352;2022-12-19T05:37:33;3.53;;;2.60;;
22468;SDS011;11401;50.792;4.352;2022-12-19T05:40:00;4.38;;;2.85;;
22468;SDS011;11401;50.792;4.352;2022-12-19T05:42:27;3.50;;;3.20;;
22468;SDS011;11401;50.792;4.352;2022-12-19T05:44:54;5.22;;;2.72;;
22468;SDS011;11401;50.792;4.352;2022-12-19T05:47:21;3.35;;;2.85;;
22468;SDS011;11401;50.792;4.352;2022-12-19T05:49:48;3.25;;;2.95;;
22468;SDS011;11401;50.792;4.352;2022-12-19T05:52:15;3.50;;;3.20;;
22468;SDS011;11401;50.792;4.352;2022-12-19T05:54:42;3.58;;;3.00;;
22468;SDS011;11401;50.792;4.352;2022-12-19T05:57:09;4.03;;;2.95;;
22468;SDS011;11401;50.792;4.352;2022-12-19T05:59:36;4.63;;;2.95;;
22468;SDS011;11401;50.792;4.352;2022-12-19T06:02:03;3.13;;;2.92;;
22468;SDS011;11401;50.792;4.352;2022-12-19T06:04:30;3.78;;;2.90;;
22468;SDS011;11401;50.792;4.352;2022-12-19T06:06:57;4.35;;;3.20;;
22468;SDS011;11401;50.792;4.352;2022-12-19T06:09:24;3.75;;;3.10;;
22468;SDS011;11401;50.792;4.352;2022-12-19T06:11:51;3.22;;;2.75;;
22468;SDS011;11401;50.792;4.352;2022-12-19T06:14:18;3.30;;;2.92;;
22468;SDS011;11401;50.792;4.352;2022-12-19T06:16:45;4.72;;;3.17;;
22468;SDS011;11401;50.792;4.352;2022-12-19T06:19:12;3.00;;;2.78;;
22468;SDS011;11401;50.792;4.352;2022-12-19T06:21:39;3.95;;;2.97;;
22468;SDS011;11401;50.792;4.352;2022-12-19T06:24:13;3.10;;;2.78;;
22468;SDS011;11401;50.792;4.352;2022-12-19T06:26:40;5.00;;;3.22;;
22468;SDS011;11401;50.792;4.352;2022-12-19T06:29:07;4.50;;;3.08;;
22468;SDS011;11401;50.792;4.352;2022-12-19T06:31:34;3.65;;;2.83;;
22468;SDS011;11401;50.792;4.352;2022-12-19T06:34:01;8.25;;;3.35;;
22468;SDS011;11401;50.792;4.352;2022-12-19T06:36:29;3.20;;;2.90;;
22468;SDS011;11401;50.792;4.352;2022-12-19T06:38:56;4.18;;;3.00;;
22468;SDS011;11401;50.792;4.352;2022-12-19T06:41:24;3.47;;;2.80;;
22468;SDS011;11401;50.792;4.352;2022-12-19T06:44:11;3.08;;;2.88;;
22468;SDS011;11401;50.792;4.352;2022-12-19T06:46:39;3.78;;;2.85;;
22468;SDS011;11401;50.792;4.352;2022-12-19T06:49:08;4.07;;;2.85;;
22468;SDS011;11401;50.792;4.352;2022-12-19T06:51:36;3.40;;;3.10;;
22468;SDS011;11401;50.792;4.352;2022-12-19T06:54:03;5.20;;;2.90;;
22468;SDS011;11401;50.792;4.352;2022-12-19T06:56:35;4.95;;;2.95;;
22468;SDS011;11401;50.792;4.352;2022-12-19T06:59:03;3.25;;;2.95;;
22468;SDS011;11401;50.792;4.352;2022-12-19T07:01:44;4.40;;;3.08;;
22468;SDS011;11401;50.792;4.352;2022-12-19T07:04:27;3.75;;;3.22;;
22468;SDS011;11401;50.792;4.352;2022-12-19T07:07:01;2.80;;;2.60;;
22468;SDS011;11401;50.792;4.352;2022-12-19T15:49:16;1.67;;;1.45;;
22468;SDS011;11401;50.792;4.352;2022-12-19T15:51:45;2.58;;;2.00;;
22468;SDS011;11401;50.792;4.352;2022-12-19T15:54:12;1.45;;;1.35;;
22468;SDS011;11401;50.792;4.352;2022-12-19T15:57:01;3.28;;;2.20;;
22468;SDS011;11401;50.792;4.352;2022-12-19T15:59:32;1.77;;;1.67;;
22468;SDS011;11401;50.792;4.352;2022-12-19T16:02:11;1.95;;;1.70;;
22468;SDS011;11401;50.792;4.352;2022-12-19T16:04:41;1.95;;;1.75;;
22468;SDS011;11401;50.792;4.352;2022-12-19T16:07:16;1.98;;;1.52;;
22468;SDS011;11401;50.792;4.352;2022-12-19T16:09:44;2.38;;;2.17;;
22468;SDS011;11401;50.792;4.352;2022-12-19T16:12:15;2.33;;;1.63;;
22468;SDS011;11401;50.792;4.352;2022-12-19T16:14:46;2.42;;;2.05;;
22468;SDS011;11401;50.792;4.352;2022-12-19T16:17:21;1.70;;;1.60;;
22468;SDS011;11401;50.792;4.352;2022-12-19T16:19:49;2.40;;;2.17;;
22468;SDS011;11401;50.792;4.352;2022-12-19T16:22:20;1.85;;;1.67;;
22468;SDS011;11401;50.792;4.352;2022-12-19T16:24:53;4.28;;;2.53;;
22468;SDS011;11401;50.792;4.352;2022-12-19T16:27:24;2.17;;;1.98;;
22468;SDS011;11401;50.792;4.352;2022-12-19T16:29:53;1.98;;;1.88;;
22468;SDS011;11401;50.792;4.352;2022-12-19T16:32:23;2.20;;;2.00;;
22468;SDS011;11401;50.792;4.352;2022-12-19T16:34:51;2.38;;;1.83;;
22468;SDS011;11401;50.792;4.352;2022-12-19T16:37:18;2.20;;;1.73;;
22468;SDS011;11401;50.792;4.352;2022-12-19T16:39:46;4.30;;;2.00;;
22468;SDS011;11401;50.792;4.352;2022-12-19T16:42:16;4.40;;;2.45;;
22468;SDS011;11401;50.792;4.352;2022-12-19T16:44:44;2.20;;;1.70;;
22468;SDS011;11401;50.792;4.352;2022-12-19T16:47:13;2.65;;;1.95;;
22468;SDS011;11401;50.792;4.352;2022-12-19T16:49:42;2.97;;;2.53;;
22468;SDS011;11401;50.792;4.352;2022-12-19T16:52:10;2.08;;;1.85;;
22468;SDS011;11401;50.792;4.352;2022-12-19T16:54:37;2.58;;;1.90;;
22468;SDS011;11401;50.792;4.352;2022-12-19T16:57:05;3.03;;;2.25;;
22468;SDS011;11401;50.792;4.352;2022-12-19T16:59:41;2.67;;;1.80;;
22468;SDS011;11401;50.792;4.352;2022-12-19T17:02:23;2.15;;;1.98;;
22468;SDS011;11401;50.792;4.352;2022-12-19T17:05:02;1.88;;;1.77;;
22468;SDS011;11401;50.792;4.352;2022-12-19T17:07:30;4.07;;;2.20;;
22468;SDS011;11401;50.792;4.352;2022-12-19T17:09:57;2.45;;;2.10;;
22468;SDS011;11401;50.792;4.352;2022-12-19T17:12:25;2.75;;;1.92;;
22468;SDS011;11401;50.792;4.352;2022-12-19T17:14:53;2.10;;;1.98;;
22468;SDS011;11401;50.792;4.352;2022-12-19T17:17:20;2.70;;;2.13;;
22468;SDS011;11401;50.792;4.352;2022-12-19T17:19:47;4.53;;;2.08;;
22468;SDS011;11401;50.792;4.352;2022-12-19T17:22:15;1.80;;;1.52;;
22468;SDS011;11401;50.792;4.352;2022-12-19T17:24:44;2.30;;;1.98;;
22468;SDS011;11401;50.792;4.352;2022-12-19T17:27:12;2.97;;;2.00;;
22468;SDS011;11401;50.792;4.352;2022-12-19T17:29:39;2.72;;;2.53;;
22468;SDS011;11401;50.792;4.352;2022-12-19T17:32:08;2.05;;;1.90;;
22468;SDS011;11401;50.792;4.352;2022-12-19T17:34:49;3.72;;;2.17;;
22468;SDS011;11401;50.792;4.352;2022-12-19T17:37:16;2.70;;;2.00;;
22468;SDS011;11401;50.792;4.352;2022-12-19T17:39:43;2.25;;;2.05;;
22468;SDS011;11401;50.792;4.352;2022-12-19T17:42:12;5.38;;;2.38;;
22468;SDS011;11401;50.792;4.352;2022-12-19T17:44:45;2.47;;;2.20;;
22468;SDS011;11401;50.792;4.352;2022-12-19T17:47:16;2.55;;;2.35;;
22468;SDS011;11401;50.792;4.352;2022-12-19T17:49:45;2.85;;;2.22;;
22468;SDS011;11401;50.792;4.352;2022-12-19T17:52:17;4.57;;;2.60;;
22468;SDS011;11401;50.792;4.352;2022-12-19T17:54:45;3.47;;;2.20;;
22468;SDS011;11401;50.792;4.352;2022-12-19T17:57:13;3.75;;;1.98;;
22468;SDS011;11401;50.792;4.352;2022-12-19T17:59:41;2.75;;;2.38;;
22468;SDS011;11401;50.792;4.352;2022-12-19T18:02:26;4.85;;;2.00;;
22468;SDS011;11401;50.792;4.352;2022-12-19T18:04:54;2.13;;;1.98;;
22468;SDS011;11401;50.792;4.352;2022-12-19T18:07:23;2.95;;;2.28;;
22468;SDS011;11401;50.792;4.352;2022-12-19T18:09:50;2.40;;;2.20;;
22468;SDS011;11401;50.792;4.352;2022-12-19T18:12:17;2.72;;;2.50;;
22468;SDS011;11401;50.792;4.352;2022-12-19T18:14:44;3.80;;;2.15;;
22468;SDS011;11401;50.792;4.352;2022-12-19T18:17:11;2.50;;;2.35;;
22468;SDS011;11401;50.792;4.352;2022-12-19T18:19:42;2.90;;;2.22;;
22468;SDS011;11401;50.792;4.352;2022-12-19T18:22:13;3.90;;;2.40;;
22468;SDS011;11401;50.792;4.352;2022-12-19T18:24:40;3.47;;;2.40;;
22468;SDS011;11401;50.792;4.352;2022-12-19T18:27:07;2.90;;;2.13;;
22468;SDS011;11401;50.792;4.352;2022-12-19T18:29:34;2.50;;;2.30;;
22468;SDS011;11401;50.792;4.352;2022-12-19T18:32:02;3.60;;;2.60;;
22468;SDS011;11401;50.792;4.352;2022-12-19T18:34:29;5.57;;;2.78;;
22468;SDS011;11401;50.792;4.352;2022-12-19T18:37:02;4.88;;;2.53;;
22468;SDS011;11401;50.792;4.352;2022-12-19T18:39:30;3.05;;;2.65;;
22468;SDS011;11401;50.792;4.352;2022-12-19T18:41:59;3.83;;;2.65;;
22468;SDS011;11401;50.792;4.352;2022-12-19T18:44:25;2.40;;;2.15;;
22468;SDS011;11401;50.792;4.352;2022-12-19T18:46:52;2.83;;;2.35;;
22468;SDS011;11401;50.792;4.352;2022-12-19T18:49:19;3.47;;;2.60;;
22468;SDS011;11401;50.792;4.352;2022-12-19T18:51:48;2.45;;;2.25;;
22468;SDS011;11401;50.792;4.352;2022-12-19T18:54:16;4.15;;;2.80;;
22468;SDS011;11401;50.792;4.352;2022-12-19T18:56:45;2.22;;;2.00;;
22468;SDS011;11401;50.792;4.352;2022-12-19T18:59:12;3.17;;;2.60;;
22468;SDS011;11401;50.792;4.352;2022-12-19T19:01:41;4.90;;;2.22;;
22468;SDS011;11401;50.792;4.352;2022-12-19T19:04:10;4.20;;;2.45;;
22468;SDS011;11401;50.792;4.352;2022-12-19T19:06:40;2.88;;;1.75;;
22468;SDS011;11401;50.792;4.352;2022-12-19T19:09:17;5.95;;;2.63;;
22468;SDS011;11401;50.792;4.352;2022-12-19T19:12:03;2.33;;;2.08;;
22468;SDS011;11401;50.792;4.352;2022-12-19T19:14:31;2.72;;;2.33;;
22468;SDS011;11401;50.792;4.352;2022-12-19T19:16:59;3.05;;;2.17;;
22468;SDS011;11401;50.792;4.352;2022-12-19T19:19:26;2.60;;;2.40;;
22468;SDS011;11401;50.792;4.352;2022-12-19T19:21:56;2.55;;;2.13;;
22468;SDS011;11401;50.792;4.352;2022-12-19T19:24:23;3.85;;;2.40;;
22468;SDS011;11401;50.792;4.352;2022-12-19T19:26:50;2.45;;;1.98;;
22468;SDS011;11401;50.792;4.352;2022-12-19T19:29:17;2.88;;;2.20;;
22468;SDS011;11401;50.792;4.352;2022-12-19T19:31:45;2.33;;;2.13;;
22468;SDS011;11401;50.792;4.352;2022-12-19T19:34:25;2.45;;;2.25;;
22468;SDS011;11401;50.792;4.352;2022-12-19T19:36:57;3.72;;;2.75;;
22468;SDS011;11401;50.792;4.352;2022-12-19T19:39:27;3.80;;;2.53;;
22468;SDS011;11401;50.792;4.352;2022-12-19T19:41:58;2.63;;;2.03;;
22468;SDS011;11401;50.792;4.352;2022-12-19T19:44:26;4.68;;;2.42;;
22468;SDS011;11401;50.792;4.352;2022-12-19T19:46:54;3.65;;;2.13;;
22468;SDS011;11401;50.792;4.352;2022-12-19T19:49:21;2.20;;;2.03;;
22468;SDS011;11401;50.792;4.352;2022-12-19T19:51:48;6.07;;;1.90;;
22468;SDS011;11401;50.792;4.352;2022-12-19T19:54:15;3.22;;;2.28;;
22468;SDS011;11401;50.792;4.352;2022-12-19T19:56:42;2.83;;;1.92;;
22468;SDS011;11401;50.792;4.352;2022-12-19T19:59:09;2.22;;;2.13;;
22468;SDS011;11401;50.792;4.352;2022-12-19T20:01:37;2.30;;;2.10;;
22468;SDS011;11401;50.792;4.352;2022-12-19T20:04:04;2.70;;;1.98;;
22468;SDS011;11401;50.792;4.352;2022-12-19T20:06:31;3.47;;;2.15;;
22468;SDS011;11401;50.792;4.352;2022-12-19T20:08:58;2.42;;;2.22;;
22468;SDS011;11401;50.792;4.352;2022-12-19T20:11:25;1.70;;;1.60;;
22468;SDS011;11401;50.792;4.352;2022-12-19T20:13:52;3.28;;;2.10;;
22468;SDS011;11401;50.792;4.352;2022-12-19T20:16:19;2.42;;;2.22;;
22468;SDS011;11401;50.792;4.352;2022-12-19T20:18:50;2.20;;;2.00;;
22468;SDS011;11401;50.792;4.352;2022-12-19T20:21:18;2.25;;;2.03;;
22468;SDS011;11401;50.792;4.352;2022-12-19T20:23:45;2.03;;;1.80;;
22468;SDS011;11401;50.792;4.352;2022-12-19T20:26:13;2.58;;;1.80;;
22468;SDS011;11401;50.792;4.352;2022-12-19T20:28:42;3.75;;;1.75;;
22468;SDS011;11401;50.792;4.352;2022-12-19T20:31:15;4.43;;;1.70;;
22468;SDS011;11401;50.792;4.352;2022-12-19T20:33:43;2.22;;;1.77;;
22468;SDS011;11401;50.792;4.352;2022-12-19T20:36:11;2.45;;;1.70;;
22468;SDS011;11401;50.792;4.352;2022-12-19T20:38:39;1.80;;;1.60;;
22468;SDS011;11401;50.792;4.352;2022-12-19T20:41:07;2.85;;;2.13;;
22468;SDS011;11401;50.792;4.352;2022-12-19T20:43:34;3.75;;;2.10;;
22468;SDS011;11401;50.792;4.352;2022-12-19T20:46:13;2.15;;;1.95;;
22468;SDS011;11401;50.792;4.352;2022-12-19T20:48:42;2.40;;;1.80;;
22468;SDS011;11401;50.792;4.352;2022-12-19T20:51:10;1.80;;;1.70;;
22468;SDS011;11401;50.792;4.352;2022-12-19T20:53:39;1.63;;;1.52;;
22468;SDS011;11401;50.792;4.352;2022-12-19T20:56:07;1.70;;;1.60;;
22468;SDS011;11401;50.792;4.352;2022-12-19T20:58:37;1.58;;;1.48;;
22468;SDS011;11401;50.792;4.352;2022-12-19T21:01:08;2.97;;;1.83;;
22468;SDS011;11401;50.792;4.352;2022-12-19T21:03:37;2.08;;;1.58;;
22468;SDS011;11401;50.792;4.352;2022-12-19T21:06:07;5.65;;;3.60;;
22468;SDS011;11401;50.792;4.352;2022-12-19T21:08:39;6.65;;;5.22;;
22468;SDS011;11401;50.792;4.352;2022-12-19T21:11:12;14.05;;;10.27;;
22468;SDS011;11401;50.792;4.352;2022-12-19T21:13:41;16.45;;;11.18;;
22468;SDS011;11401;50.792;4.352;2022-12-19T21:16:10;11.48;;;9.43;;
22468;SDS011;11401;50.792;4.352;2022-12-19T21:18:39;15.65;;;10.40;;
22468;SDS011;11401;50.792;4.352;2022-12-19T21:21:10;12.40;;;8.90;;
22468;SDS011;11401;50.792;4.352;2022-12-19T21:23:43;8.35;;;6.65;;
22468;SDS011;11401;50.792;4.352;2022-12-19T21:26:11;15.90;;;9.05;;
22468;SDS011;11401;50.792;4.352;2022-12-19T21:28:38;12.27;;;7.63;;
22468;SDS011;11401;50.792;4.352;2022-12-19T21:31:16;16.40;;;8.75;;
22468;SDS011;11401;50.792;4.352;2022-12-19T21:33:46;12.15;;;7.47;;
22468;SDS011;11401;50.792;4.352;2022-12-19T21:36:15;17.77;;;8.45;;
22468;SDS011;11401;50.792;4.352;2022-12-19T21:38:46;16.70;;;7.32;;
22468;SDS011;11401;50.792;4.352;2022-12-19T21:41:15;12.55;;;6.35;;
22468;SDS011;11401;50.792;4.352;2022-12-19T21:43:44;10.80;;;6.32;;
22468;SDS011;11401;50.792;4.352;2022-12-19T21:46:14;14.10;;;8.27;;
22468;SDS011;11401;50.792;4.352;2022-12-19T21:48:44;12.23;;;6.25;;
22468;SDS011;11401;50.792;4.352;2022-12-19T21:51:13;14.13;;;6.78;;
22468;SDS011;11401;50.792;4.352;2022-12-19T21:53:41;8.65;;;5.53;;
22468;SDS011;11401;50.792;4.352;2022-12-19T21:56:22;11.90;;;6.82;;
22468;SDS011;11401;50.792;4.352;2022-12-19T21:58:53;7.43;;;5.47;;
22468;SDS011;11401;50.792;4.352;2022-12-19T22:01:25;8.27;;;4.97;;
22468;SDS011;11401;50.792;4.352;2022-12-19T22:03:57;16.63;;;6.38;;
22468;SDS011;11401;50.792;4.352;2022-12-19T22:06:32;9.05;;;4.68;;
22468;SDS011;11401;50.792;4.352;2022-12-19T22:09:01;6.15;;;3.78;;
22468;SDS011;11401;50.792;4.352;2022-12-19T22:11:29;4.63;;;4.10;;
22468;SDS011;11401;50.792;4.352;2022-12-19T22:13:57;3.30;;;2.97;;
22468;SDS011;11401;50.792;4.352;2022-12-19T22:16:25;5.80;;;4.47;;
22468;SDS011;11401;50.792;4.352;2022-12-19T22:18:53;6.63;;;4.40;;
22468;SDS011;11401;50.792;4.352;2022-12-19T22:21:24;8.35;;;5.22;;
22468;SDS011;11401;50.792;4.352;2022-12-19T22:23:54;5.97;;;3.65;;
22468;SDS011;11401;50.792;4.352;2022-12-19T22:26:25;7.40;;;4.75;;
22468;SDS011;11401;50.792;4.352;2022-12-19T22:28:54;8.35;;;4.43;;
22468;SDS011;11401;50.792;4.352;2022-12-19T22:31:29;10.52;;;4.13;;
22468;SDS011;11401;50.792;4.352;2022-12-19T22:34:02;8.48;;;4.20;;
22468;SDS011;11401;50.792;4.352;2022-12-19T22:36:31;9.45;;;4.20;;
22468;SDS011;11401;50.792;4.352;2022-12-19T22:39:02;7.65;;;4.47;;
22468;SDS011;11401;50.792;4.352;2022-12-19T22:41:31;5.50;;;3.45;;
22468;SDS011;11401;50.792;4.352;2022-12-19T22:43:59;10.68;;;4.45;;
22468;SDS011;11401;50.792;4.352;2022-12-19T22:46:31;4.50;;;2.83;;
22468;SDS011;11401;50.792;4.352;2022-12-19T22:49:01;4.65;;;2.65;;
22468;SDS011;11401;50.792;4.352;2022-12-19T22:51:33;7.15;;;3.58;;
22468;SDS011;11401;50.792;4.352;2022-12-19T22:54:02;7.05;;;3.85;;
22468;SDS011;11401;50.792;4.352;2022-12-19T22:56:30;5.90;;;3.65;;
22468;SDS011;11401;50.792;4.352;2022-12-19T22:58:59;6.63;;;3.40;;
22468;SDS011;11401;50.792;4.352;2022-12-19T23:01:30;4.38;;;2.70;;
22468;SDS011;11401;50.792;4.352;2022-12-19T23:04:03;7.50;;;3.10;;
22468;SDS011;11401;50.792;4.352;2022-12-19T23:06:31;4.07;;;3.13;;
22468;SDS011;11401;50.792;4.352;2022-12-19T23:09:00;4.60;;;3.30;;
22468;SDS011;11401;50.792;4.352;2022-12-19T23:11:30;10.70;;;3.53;;
22468;SDS011;11401;50.792;4.352;2022-12-19T23:14:01;5.20;;;2.70;;
22468;SDS011;11401;50.792;4.352;2022-12-19T23:16:30;6.18;;;3.03;;
22468;SDS011;11401;50.792;4.352;2022-12-19T23:18:57;5.93;;;2.78;;
22468;SDS011;11401;50.792;4.352;2022-12-19T23:21:24;2.85;;;2.50;;
22468;SDS011;11401;50.792;4.352;2022-12-19T23:23:53;3.78;;;2.70;;
22468;SDS011;11401;50.792;4.352;2022-12-19T23:26:24;7.60;;;2.72;;
22468;SDS011;11401;50.792;4.352;2022-12-19T23:28:52;7.97;;;2.92;;
22468;SDS011;11401;50.792;4.352;2022-12-19T23:31:24;3.55;;;2.75;;
22468;SDS011;11401;50.792;4.352;2022-12-19T23:33:52;7.95;;;2.78;;
22468;SDS011;11401;50.792;4.352;2022-12-19T23:36:20;3.33;;;2.72;;
22468;SDS011;11401;50.792;4.352;2022-12-19T23:39:08;5.38;;;2.78;;
22468;SDS011;11401;50.792;4.352;2022-12-19T23:41:36;3.10;;;2.80;;
22468;SDS011;11401;50.792;4.352;2022-12-19T23:44:03;4.93;;;2.40;;
22468;SDS011;11401;50.792;4.352;2022-12-19T23:46:30;4.03;;;2.90;;
22468;SDS011;11401;50.792;4.352;2022-12-19T23:48:57;3.05;;;2.53;;
22468;SDS011;11401;50.792;4.352;2022-12-19T23:51:25;4.55;;;2.50;;
22468;SDS011;11401;50.792;4.352;2022-12-19T23:53:54;2.45;;;2.25;;
22468;SDS011;11401;50.792;4.352;2022-12-19T23:56:25;3.85;;;2.50;;
22468;SDS011;11401;50.792;4.352;2022-12-19T23:58:53;2.85;;;2.45;;
